Time;durP1;ratioP1;P1;durP2;ratioP2;P2;SDS_P1;SDS_P2;PMS_P1;PMS_P2;Temp;Humidity;BMP_temperature;BMP_pressure;BME280_temperature;BME280_humidity;BME280_pressure;Samples;Min_cycle;Max_cycle;Signal;HPM_P1;HPM_P2
2021/07/15 00:00:25;;;;;;;11.07;3.80;;;;;;;19.32;82.95;97958.09;126511;1097;22786;-94
2021/07/15 00:03:17;;;;;;;7.55;3.45;;;;;;;19.35;83.30;97975.97;126963;1096;22941;-92
2021/07/15 00:05:46;;;;;;;9.85;4.05;;;;;;;19.41;83.00;97988.53;126797;1095;22838;-94
2021/07/15 00:08:17;;;;;;;11.10;4.10;;;;;;;19.44;82.79;97989.83;126761;1096;27189;-92
2021/07/15 00:10:51;;;;;;;7.33;3.63;;;;;;;19.44;83.07;97996.19;126647;1096;22810;-93
2021/07/15 00:13:19;;;;;;;8.75;3.60;;;;;;;19.39;83.34;97979.75;126781;1096;22878;-92
2021/07/15 00:15:50;;;;;;;11.15;4.18;;;;;;;19.34;83.40;97990.92;126900;1097;22791;-92
2021/07/15 00:18:26;;;;;;;9.58;4.58;;;;;;;19.31;83.71;97986.83;126447;1096;26284;-92
2021/07/15 00:20:55;;;;;;;9.73;3.98;;;;;;;19.30;83.62;97995.41;126405;1097;23328;-92
2021/07/15 00:23:22;;;;;;;;;;;;;;;19.27;83.93;98005.16;126546;1096;22809;-92
2021/07/15 00:25:50;;;;;;;9.33;5.00;;;;;;;19.22;84.35;98007.23;126840;1096;22952;-92
2021/07/15 00:28:19;;;;;;;10.73;4.50;;;;;;;19.22;84.37;98019.08;126461;1096;22791;-92
2021/07/15 00:30:47;;;;;;;11.33;4.13;;;;;;;19.25;84.48;98023.98;126566;1096;26245;-91
2021/07/15 00:33:16;;;;;;;14.08;4.28;;;;;;;19.31;84.38;98021.91;126596;1095;22944;-91
2021/07/15 00:35:43;;;;;;;10.10;4.30;;;;;;;19.38;84.08;98035.28;126476;1097;25787;-92
2021/07/15 00:38:11;;;;;;;13.48;5.05;;;;;;;19.40;83.94;98079.97;126043;1096;26251;-90
2021/07/15 00:40:39;;;;;;;9.90;4.80;;;;;;;19.49;84.50;98114.80;126199;1097;24587;-90
2021/07/15 00:43:07;;;;;;;12.75;4.65;;;;;;;19.58;84.31;98131.44;125671;1096;23545;-92
2021/07/15 00:45:35;;;;;;;8.28;4.78;;;;;;;19.65;84.06;98155.88;125672;1096;22816;-91
2021/07/15 00:48:04;;;;;;;14.47;4.93;;;;;;;19.70;84.25;98153.80;125676;1096;22800;-90
2021/07/15 00:50:31;;;;;;;7.73;4.25;;;;;;;19.76;84.11;98168.38;125783;1096;25867;-90
2021/07/15 00:53:02;;;;;;;11.35;4.85;;;;;;;19.72;83.88;98164.55;125691;1095;22813;-90
2021/07/15 00:55:39;;;;;;;9.73;5.38;;;;;;;19.73;84.12;98155.14;126179;1096;22806;-90
2021/07/15 00:58:10;;;;;;;9.83;5.33;;;;;;;19.72;84.14;98181.97;126117;1096;22841;-90
2021/07/15 01:00:48;;;;;;;7.90;4.73;;;;;;;19.70;84.09;98189.72;126164;1096;22809;-91
2021/07/15 01:03:21;;;;;;;11.83;4.68;;;;;;;19.70;84.09;98186.15;126141;1097;24436;-91
2021/07/15 01:05:53;;;;;;;10.60;4.70;;;;;;;19.69;84.12;98215.73;126493;1093;23617;-90
2021/07/15 01:08:21;;;;;;;10.63;4.60;;;;;;;19.68;84.13;98210.52;126382;1094;22793;-90
2021/07/15 01:10:54;;;;;;;9.85;5.38;;;;;;;19.69;84.37;98190.06;126366;1093;22862;-90
2021/07/15 01:13:24;;;;;;;12.98;4.65;;;;;;;19.70;84.27;98169.57;126424;1092;22776;-90
2021/07/15 01:16:24;;;;;;;11.45;5.33;;;;;;;19.66;84.08;98138.99;126336;1094;22860;-90
2021/07/15 01:19:40;;;;;;;11.70;4.68;;;;;;;19.65;84.56;98093.14;126635;1092;22934;-93
2021/07/15 01:22:25;;;;;;;6.17;4.27;;;;;;;19.65;84.35;98035.13;126791;1093;24458;-93
2021/07/15 01:25:31;;;;;;;7.05;4.48;;;;;;;19.61;84.58;98014.80;126725;1093;24443;-93
2021/07/15 01:28:04;;;;;;;10.33;5.35;;;;;;;19.52;84.92;98006.46;126699;1093;22779;-93
2021/07/15 01:30:41;;;;;;;10.08;4.68;;;;;;;19.41;84.89;98016.14;126729;1093;22817;-93
2021/07/15 01:33:19;;;;;;;9.75;5.28;;;;;;;19.40;85.29;98036.59;126597;1093;22800;-92
2021/07/15 01:35:54;;;;;;;9.43;4.55;;;;;;;19.41;85.58;98068.61;126464;1093;22815;-91
2021/07/15 01:38:47;;;;;;;10.90;4.15;;;;;;;19.46;85.38;98086.98;126660;1093;22780;-92
2021/07/15 01:41:28;;;;;;;10.60;4.40;;;;;;;19.49;85.30;98073.37;126487;1094;22821;-92
2021/07/15 01:44:10;;;;;;;11.88;4.98;;;;;;;19.49;85.38;98059.56;126499;1093;22800;-92
2021/07/15 01:46:40;;;;;;;8.70;4.83;;;;;;;19.52;85.39;98055.37;126556;1092;25877;-92
2021/07/15 01:49:10;;;;;;;6.88;4.60;;;;;;;19.51;85.60;98057.33;126686;1093;27188;-92
2021/07/15 01:51:40;;;;;;;10.73;3.90;;;;;;;19.53;85.64;98057.02;126591;1093;22777;-92
2021/07/15 01:54:09;;;;;;;9.35;3.93;;;;;;;19.52;85.33;98061.70;126429;1093;22817;-92
2021/07/15 01:56:39;;;;;;;7.43;4.43;;;;;;;19.52;85.45;98069.17;126603;1093;22896;-92
2021/07/15 01:59:09;;;;;;;7.03;4.13;;;;;;;19.52;85.56;98075.51;126500;1093;22896;-92
2021/07/15 02:01:39;;;;;;;7.93;4.45;;;;;;;19.47;85.50;98072.87;126517;1093;22665;-91
2021/07/15 02:04:08;;;;;;;8.30;4.08;;;;;;;19.43;85.54;98048.97;126518;1093;22928;-92
2021/07/15 02:06:36;;;;;;;8.63;4.68;;;;;;;19.40;85.77;98053.16;126499;1093;22814;-92
2021/07/15 02:09:09;;;;;;;9.45;4.10;;;;;;;19.40;86.09;98058.68;126559;1093;23305;-93
2021/07/15 02:11:38;;;;;;;8.05;3.93;;;;;;;19.43;86.06;98049.78;126692;1093;22754;-93
2021/07/15 02:14:10;;;;;;;;;;;;;;;19.45;85.74;98033.70;126595;1093;23445;-92
2021/07/15 02:16:42;;;;;;;10.38;3.90;;;;;;;19.49;86.05;98045.75;126461;1094;21511;-93
2021/07/15 02:19:12;;;;;;;6.73;4.38;;;;;;;19.52;85.75;98047.08;126509;1093;22780;-91
2021/07/15 02:21:41;;;;;;;8.25;5.25;;;;;;;19.56;85.93;98033.45;126596;1093;22807;-93
2021/07/15 02:24:11;;;;;;;10.13;5.33;;;;;;;19.55;85.59;98029.89;126718;1093;27359;-91
2021/07/15 02:26:41;;;;;;;7.43;4.83;;;;;;;19.54;85.63;98022.72;126481;1093;22780;-92
2021/07/15 02:29:09;;;;;;;8.75;4.68;;;;;;;19.53;85.61;98010.87;126239;1093;22823;-92
2021/07/15 02:31:42;;;;;;;9.83;4.70;;;;;;;19.50;85.51;98014.25;126417;1093;22817;-92
2021/07/15 02:34:26;;;;;;;9.28;4.73;;;;;;;19.44;85.83;98025.73;126482;1094;22801;-92
2021/07/15 02:36:57;;;;;;;9.93;4.37;;;;;;;19.43;85.84;98022.16;126582;1093;22798;-91
2021/07/15 02:39:25;;;;;;;6.68;4.35;;;;;;;19.44;85.71;97995.36;126341;1093;24422;-92
2021/07/15 02:41:54;;;;;;;9.33;4.38;;;;;;;19.40;85.80;97991.60;126358;1093;22782;-92
2021/07/15 02:44:24;;;;;;;10.05;4.30;;;;;;;19.38;85.99;97988.34;126558;1093;22861;-91
2021/07/15 02:46:51;;;;;;;7.40;4.05;;;;;;;19.38;86.01;97986.39;126560;1093;22934;-92
2021/07/15 02:49:19;;;;;;;7.43;3.85;;;;;;;19.40;85.80;98008.98;126743;1093;22863;-93
2021/07/15 02:51:47;;;;;;;7.37;4.17;;;;;;;19.41;86.08;98040.19;126666;1093;23728;-92
2021/07/15 02:54:16;;;;;;;8.48;4.08;;;;;;;19.40;86.22;98091.01;126490;1093;25996;-92
2021/07/15 02:56:51;;;;;;;;;;;;;;;19.33;86.46;98113.52;126553;1094;23020;-93
2021/07/15 02:59:25;;;;;;;9.25;4.40;;;;;;;19.29;86.72;98129.09;126528;1093;23250;-92
2021/07/15 03:02:10;;;;;;;8.28;4.30;;;;;;;19.30;87.05;98125.18;126494;1093;23615;-91
2021/07/15 03:04:45;;;;;;;9.05;4.00;;;;;;;19.38;86.97;98126.41;126502;1093;22800;-91
2021/07/15 03:07:15;;;;;;;9.00;4.03;;;;;;;19.42;87.21;98144.78;126347;1093;22804;-92
2021/07/15 03:09:50;;;;;;;9.58;3.83;;;;;;;19.46;87.02;98159.63;126408;1093;22787;-91
2021/07/15 03:12:21;;;;;;;6.00;3.55;;;;;;;19.48;86.82;98154.61;126204;1093;22807;-91
2021/07/15 03:14:54;;;;;;;7.20;3.68;;;;;;;19.46;86.54;98073.17;126116;1093;22780;-91
2021/07/15 03:17:34;;;;;;;6.03;3.70;;;;;;;19.48;86.52;98046.09;126160;1093;22798;-91
2021/07/15 03:20:18;;;;;;;5.40;3.50;;;;;;;19.45;86.23;98014.38;126176;1093;26223;-91
2021/07/15 03:22:49;;;;;;;9.17;4.03;;;;;;;19.42;86.32;98003.95;126174;1093;22767;-92
2021/07/15 03:25:20;;;;;;;11.60;4.20;;;;;;;19.39;86.73;98053.47;126194;1093;22797;-90
2021/07/15 03:27:50;;;;;;;4.83;3.25;;;;;;;19.34;86.63;98057.19;126121;1093;22767;-91
2021/07/15 03:30:19;;;;;;;6.63;3.25;;;;;;;19.30;86.84;98045.95;126127;1093;22718;-90
2021/07/15 03:32:49;;;;;;;7.70;3.98;;;;;;;19.29;86.96;98032.45;126211;1093;22775;-92
2021/07/15 03:35:18;;;;;;;6.13;3.57;;;;;;;19.30;86.87;98042.35;126280;1093;27369;-93
2021/07/15 03:37:47;;;;;;;6.83;3.40;;;;;;;19.27;87.01;98038.28;126223;1093;22823;-91
2021/07/15 03:40:18;;;;;;;10.37;4.23;;;;;;;19.28;87.27;98025.29;125751;1093;23031;-91
2021/07/15 03:42:47;;;;;;;6.18;3.15;;;;;;;19.29;87.15;98011.17;126309;1093;22767;-91
2021/07/15 03:45:16;;;;;;;;;;;;;;;19.35;87.44;98017.38;126273;1093;22777;-92
2021/07/15 03:47:55;;;;;;;8.03;4.03;;;;;;;19.36;87.18;98002.45;126359;1096;25665;-92
2021/07/15 03:50:25;;;;;;;6.10;4.00;;;;;;;19.34;86.97;97969.64;126293;1094;22803;-92
2021/07/15 03:52:58;;;;;;;6.85;4.25;;;;;;;19.31;87.07;97945.41;126351;1093;22902;-92
2021/07/15 03:55:28;;;;;;;8.83;4.48;;;;;;;19.35;87.17;97935.38;126390;1093;22942;-92
2021/07/15 03:58:00;;;;;;;11.43;4.13;;;;;;;19.39;87.21;97937.49;126187;1093;22814;-91
2021/07/15 04:00:28;;;;;;;7.10;3.70;;;;;;;19.43;86.77;97932.98;126055;1093;22850;-90
2021/07/15 04:03:01;;;;;;;8.30;4.20;;;;;;;19.43;87.05;97977.17;126162;1093;22938;-90
2021/07/15 04:05:31;;;;;;;10.70;4.10;;;;;;;19.43;86.79;97932.98;126127;1092;22794;-90
2021/07/15 04:08:01;;;;;;;6.68;3.83;;;;;;;19.40;86.80;97944.66;126239;1093;22797;-90
2021/07/15 04:10:30;;;;;;;7.15;3.70;;;;;;;19.40;87.04;97973.08;126198;1093;25931;-92
2021/07/15 04:12:59;;;;;;;9.45;3.85;;;;;;;19.39;87.15;97973.39;126315;1093;22766;-92
2021/07/15 04:15:46;;;;;;;;;;;;;;;19.43;87.39;97989.02;126173;1093;22797;-90
2021/07/15 04:18:15;;;;;;;6.37;3.40;;;;;;;19.50;87.16;97963.73;126116;1093;21629;-90
2021/07/15 04:20:45;;;;;;;8.50;4.03;;;;;;;19.52;87.19;97991.84;126121;1093;24433;-90
2021/07/15 04:23:13;;;;;;;13.18;4.83;;;;;;;19.56;87.34;98001.13;126125;1093;27250;-91
2021/07/15 04:25:43;;;;;;;8.03;4.43;;;;;;;19.58;87.20;97989.77;125619;1093;24150;-90
2021/07/15 04:28:14;;;;;;;8.03;3.90;;;;;;;19.57;86.94;97980.67;126171;1094;24427;-92
2021/07/15 04:30:49;;;;;;;7.83;3.95;;;;;;;19.54;87.07;97995.91;126081;1092;22876;-92
2021/07/15 04:33:18;;;;;;;7.08;4.20;;;;;;;19.62;87.41;98004.56;126223;1093;24575;-92
2021/07/15 04:35:47;;;;;;;8.13;4.38;;;;;;;19.66;87.23;98008.34;126326;1093;22837;-93
2021/07/15 04:38:16;;;;;;;7.10;4.37;;;;;;;19.68;87.14;98033.70;126339;1093;22769;-92
2021/07/15 04:40:45;;;;;;;7.75;4.53;;;;;;;19.67;87.08;98060.52;126478;1094;22794;-93
2021/07/15 04:43:14;;;;;;;9.55;4.63;;;;;;;19.68;87.22;98045.56;126530;1093;22735;-93
2021/07/15 04:45:44;;;;;;;7.80;3.95;;;;;;;19.73;87.14;98028.89;126676;1096;22784;-93
2021/07/15 04:48:18;;;;;;;7.43;4.00;;;;;;;19.78;86.94;98010.53;126175;1093;26261;-91
2021/07/15 04:50:47;;;;;;;7.63;4.55;;;;;;;19.77;86.53;97986.82;126146;1093;27597;-92
2021/07/15 04:53:22;;;;;;;8.20;4.55;;;;;;;19.78;86.37;97986.50;125743;1094;22774;-93
2021/07/15 04:55:54;;;;;;;10.17;4.73;;;;;;;19.78;86.60;97974.62;126455;1094;22807;-92
2021/07/15 04:58:23;;;;;;;9.55;4.78;;;;;;;19.82;86.95;97976.44;126827;1096;24155;-92
2021/07/15 05:00:51;;;;;;;9.63;4.85;;;;;;;19.85;86.82;97981.34;126171;1096;22810;-93
2021/07/15 05:03:23;;;;;;;9.63;5.10;;;;;;;19.89;86.89;97996.14;126190;1096;22925;-92
2021/07/15 05:05:51;;;;;;;7.95;4.90;;;;;;;19.94;86.88;97999.89;126468;1096;22810;-93
2021/07/15 05:08:18;;;;;;;13.13;5.77;;;;;;;19.99;86.72;98005.28;126682;1095;24189;-92
2021/07/15 05:10:47;;;;;;;13.13;5.80;;;;;;;20.06;86.93;98011.16;126506;1096;24480;-93
2021/07/15 05:13:15;;;;;;;13.55;6.75;;;;;;;20.12;86.92;98032.02;126835;1096;22946;-93
2021/07/15 05:15:42;;;;;;;8.17;6.23;;;;;;;20.14;86.91;98040.81;126886;1096;26296;-94
2021/07/15 05:18:10;;;;;;;11.45;6.53;;;;;;;20.19;86.87;98070.28;126728;1096;22746;-92
2021/07/15 05:20:37;;;;;;;9.80;6.20;;;;;;;20.19;86.82;98123.63;126220;1096;26220;-93
2021/07/15 05:23:06;;;;;;;11.55;7.40;;;;;;;20.18;86.66;98206.88;126274;1096;25761;-91
2021/07/15 05:25:33;;;;;;;17.53;8.88;;;;;;;20.08;86.59;98202.44;125943;1096;22825;-92
2021/07/15 05:28:01;;;;;;;13.50;8.00;;;;;;;20.00;86.86;98154.23;125582;1096;22769;-90
2021/07/15 05:30:30;;;;;;;16.47;7.83;;;;;;;19.97;87.33;98140.22;126018;1096;22770;-91
2021/07/15 05:32:58;;;;;;;14.93;8.17;;;;;;;19.99;87.05;98115.84;126093;1096;27141;-88
2021/07/15 05:35:26;;;;;;;13.68;7.48;;;;;;;19.99;87.11;98105.63;125619;1096;22904;-90
2021/07/15 05:37:54;;;;;;;13.40;7.13;;;;;;;20.00;87.21;98115.53;126429;1094;22848;-93
2021/07/15 05:40:23;;;;;;;14.95;8.28;;;;;;;20.06;87.37;98139.16;126526;1096;22724;-92
2021/07/15 05:42:50;;;;;;;13.88;6.75;;;;;;;20.09;87.03;98126.64;126305;1096;26181;-93
2021/07/15 05:45:18;;;;;;;11.90;6.78;;;;;;;20.05;87.02;98103.54;126094;1096;22852;-93
2021/07/15 05:47:47;;;;;;;13.00;7.38;;;;;;;20.04;87.11;98124.01;126131;1096;22797;-92
2021/07/15 05:50:15;;;;;;;12.13;6.43;;;;;;;20.03;87.01;98114.91;126270;1097;22873;-92
2021/07/15 05:52:43;;;;;;;9.03;6.10;;;;;;;20.06;87.32;98111.52;125840;1096;25865;-92
2021/07/15 05:55:11;;;;;;;17.60;6.78;;;;;;;20.09;87.43;98083.22;125850;1096;22764;-93
2021/07/15 05:57:39;;;;;;;11.33;7.38;;;;;;;20.13;87.63;98071.53;126262;1096;22835;-93
2021/07/15 06:00:10;;;;;;;15.18;7.70;;;;;;;20.21;88.00;98082.64;126387;1096;23054;-92
2021/07/15 06:02:38;;;;;;;13.33;7.20;;;;;;;20.28;87.62;98084.95;126144;1096;22714;-94
2021/07/15 06:05:09;;;;;;;14.93;8.03;;;;;;;20.34;87.51;98067.08;126226;1096;22770;-93
2021/07/15 06:07:37;;;;;;;14.68;7.78;;;;;;;20.42;87.72;98059.97;126621;1096;24157;-94
2021/07/15 06:10:07;;;;;;;18.08;8.43;;;;;;;20.43;86.83;98056.05;126392;1097;27118;-94
2021/07/15 06:12:35;;;;;;;13.43;8.10;;;;;;;20.45;87.23;98064.84;126884;1096;22712;-94
2021/07/15 06:15:04;;;;;;;13.10;6.95;;;;;;;20.51;87.06;98055.27;127202;1096;22786;-95
2021/07/15 06:17:35;;;;;;;;;;;;;;;20.54;87.04;98065.70;127092;1096;22864;-95
2021/07/15 06:20:04;;;;;;;9.43;5.68;;;;;;;20.61;87.06;98067.98;127636;1095;24175;-95
2021/07/15 06:22:32;;;;;;;13.73;6.00;;;;;;;20.62;86.79;98066.89;127242;1096;22792;-94
2021/07/15 06:25:01;;;;;;;13.65;6.15;;;;;;;20.60;86.58;98060.84;127628;1096;22776;-95
2021/07/15 06:27:45;;;;;;;13.00;5.90;;;;;;;20.60;86.62;98058.07;127832;1093;22934;-92
2021/07/15 06:30:18;;;;;;;10.55;6.28;;;;;;;20.69;86.86;98055.36;127727;1097;22804;-95
2021/07/15 06:32:48;;;;;;;11.63;5.98;;;;;;;20.80;87.05;98067.75;127472;1096;25778;-94
2021/07/15 06:35:22;;;;;;;9.90;5.77;;;;;;;20.89;86.96;98063.03;127342;1095;24583;-95
2021/07/15 06:37:54;;;;;;;10.77;5.90;;;;;;;21.01;86.93;98049.38;127235;1096;22938;-95
2021/07/15 06:40:22;;;;;;;8.35;5.18;;;;;;;21.17;87.17;98048.91;127134;1096;22796;-95
2021/07/15 06:42:50;;;;;;;7.80;5.85;;;;;;;21.35;86.95;98033.91;127094;1096;22806;-95
2021/07/15 06:45:19;;;;;;;11.48;5.55;;;;;;;21.56;86.76;98038.83;126993;1096;22897;-95
2021/07/15 06:47:47;;;;;;;;;;;;;;;21.72;86.25;98052.98;127087;1096;22876;-95
2021/07/15 06:50:17;;;;;;;12.53;6.45;;;;;;;21.86;86.07;98063.89;127089;1096;21460;-94
2021/07/15 06:52:46;;;;;;;13.33;7.20;;;;;;;21.93;85.69;98087.19;126797;1096;22950;-94
2021/07/15 06:55:14;;;;;;;11.25;7.15;;;;;;;21.94;85.21;98137.94;126865;1096;26304;-93
2021/07/15 06:57:41;;;;;;;12.88;7.23;;;;;;;21.92;84.78;98190.94;126533;1096;24444;-93
2021/07/15 07:00:13;;;;;;;12.90;6.85;;;;;;;21.86;84.36;98199.73;126812;1095;22865;-94
2021/07/15 07:02:42;;;;;;;11.70;6.58;;;;;;;21.71;83.64;98212.94;126768;1096;22799;-93
2021/07/15 07:05:13;;;;;;;8.78;5.90;;;;;;;21.56;83.38;98216.17;126490;1096;22822;-93
2021/07/15 07:07:41;;;;;;;10.50;5.38;;;;;;;21.39;82.90;98211.39;126313;1096;22716;-91
2021/07/15 07:10:11;;;;;;;8.20;5.77;;;;;;;21.27;82.95;98244.44;126253;1096;22741;-93
2021/07/15 07:12:39;;;;;;;14.10;5.73;;;;;;;21.18;83.15;98250.75;125828;1096;22716;-94
2021/07/15 07:15:10;;;;;;;7.65;4.43;;;;;;;21.04;81.02;98225.94;126525;1096;25932;-91
2021/07/15 07:17:38;;;;;;;10.25;4.30;;;;;;;20.82;80.95;98220.46;126128;1096;22800;-92
2021/07/15 07:20:10;;;;;;;6.68;3.50;;;;;;;20.61;80.05;98209.95;126306;1096;22944;-93
2021/07/15 07:22:39;;;;;;;9.48;3.63;;;;;;;20.33;79.95;98208.43;126631;1096;22813;-94
2021/07/15 07:25:09;;;;;;;6.10;2.50;;;;;;;20.08;80.36;98207.96;126343;1096;22867;-92
2021/07/15 07:27:37;;;;;;;4.28;2.10;;;;;;;19.84;80.74;98227.59;126102;1096;22796;-93
2021/07/15 07:30:08;;;;;;;8.43;3.65;;;;;;;19.65;81.46;98247.85;126332;1096;22851;-92
2021/07/15 07:32:36;;;;;;;5.30;2.90;;;;;;;19.54;81.76;98285.13;126124;1095;22808;-92
2021/07/15 07:35:06;;;;;;;7.68;2.95;;;;;;;19.44;82.23;98274.28;126311;1096;26276;-93
2021/07/15 07:37:38;;;;;;;9.13;2.88;;;;;;;19.37;82.73;98276.64;126477;1095;25870;-93
2021/07/15 07:40:08;;;;;;;4.27;2.50;;;;;;;19.30;82.88;98288.09;126607;1096;22785;-93
2021/07/15 07:42:37;;;;;;;7.63;2.70;;;;;;;19.21;83.11;98251.28;126562;1096;26258;-92
2021/07/15 07:45:08;;;;;;;8.70;3.85;;;;;;;19.16;83.60;98252.22;126262;1096;26409;-91
2021/07/15 07:47:35;;;;;;;7.67;3.53;;;;;;;19.08;84.18;98263.96;126232;1095;22947;-92
2021/07/15 07:50:06;;;;;;;5.45;3.25;;;;;;;18.99;84.37;98276.84;126231;1096;26239;-93
2021/07/15 07:52:34;;;;;;;5.10;3.00;;;;;;;18.90;85.16;98272.02;127070;1096;23203;-93
2021/07/15 07:55:47;;;;;;;9.20;3.38;;;;;;;18.83;85.64;98277.11;127024;1096;25778;-94
2021/07/15 07:58:25;;;;;;;8.13;4.13;;;;;;;18.79;86.27;98267.78;126969;1096;23774;-94
2021/07/15 08:00:56;;;;;;;8.25;3.95;;;;;;;18.84;86.49;98234.62;127155;1096;22796;-93
2021/07/15 08:03:30;;;;;;;7.48;3.60;;;;;;;18.90;86.93;98282.23;126920;1095;22825;-92
2021/07/15 08:05:58;;;;;;;8.98;3.90;;;;;;;18.91;86.97;98281.10;126925;1097;22770;-91
2021/07/15 08:08:29;;;;;;;6.70;3.48;;;;;;;18.89;86.86;98259.36;126134;1096;26284;-91
2021/07/15 08:11:49;;;;;;;6.05;4.33;;;;;;;18.84;87.37;98269.64;126182;1096;22823;-92
2021/07/15 08:14:22;;;;;;;8.08;3.33;;;;;;;18.74;87.23;98254.89;126246;1096;22733;-90
2021/07/15 08:16:51;;;;;;;4.05;2.53;;;;;;;18.69;87.27;98240.38;126110;1096;24468;-91
2021/07/15 08:19:20;;;;;;;4.50;2.55;;;;;;;18.63;87.42;98236.90;125963;1095;22809;-92
2021/07/15 08:21:48;;;;;;;5.90;2.68;;;;;;;18.60;87.48;98223.70;126480;1096;22806;-93
2021/07/15 08:24:16;;;;;;;5.93;3.15;;;;;;;18.60;87.92;98199.70;126283;1096;26379;-91
2021/07/15 08:26:44;;;;;;;7.30;3.73;;;;;;;18.63;88.13;98184.49;126416;1096;22789;-91
2021/07/15 08:29:11;;;;;;;6.03;3.03;;;;;;;18.69;88.09;98202.57;126301;1096;22816;-91
2021/07/15 08:31:39;;;;;;;4.40;2.58;;;;;;;18.71;87.84;98161.70;126414;1096;27205;-94
2021/07/15 08:34:07;;;;;;;5.85;2.80;;;;;;;18.72;87.97;98124.73;126738;1096;22832;-93
2021/07/15 08:36:35;;;;;;;5.15;2.80;;;;;;;18.74;87.79;98127.19;126669;1096;24914;-92
2021/07/15 08:39:04;;;;;;;5.95;2.58;;;;;;;18.75;88.01;98113.09;126352;1096;22884;-92
2021/07/15 08:41:32;;;;;;;;;;;;;;;18.77;88.37;98121.06;126794;1097;22760;-93
2021/07/15 08:44:00;;;;;;;4.67;2.50;;;;;;;18.80;88.42;98131.46;126387;1096;25662;-90
2021/07/15 08:46:32;;;;;;;4.60;2.45;;;;;;;18.87;88.50;98147.64;126182;1096;22819;-91
2021/07/15 08:49:01;;;;;;;4.83;2.78;;;;;;;18.98;88.58;98138.02;126133;1096;26050;-91
2021/07/15 08:51:30;;;;;;;4.15;2.93;;;;;;;19.12;88.61;98136.08;125841;1095;22938;-90
2021/07/15 08:53:59;;;;;;;5.57;2.93;;;;;;;19.29;88.44;98146.46;126185;1096;22896;-91
2021/07/15 08:56:38;;;;;;;6.63;2.95;;;;;;;19.49;88.76;98147.13;126190;1097;22893;-91
2021/07/15 08:59:09;;;;;;;6.98;3.23;;;;;;;19.66;88.37;98136.23;125759;1096;22770;-91
2021/07/15 09:01:36;;;;;;;5.08;3.00;;;;;;;19.79;87.95;98145.62;125703;1096;22800;-90
2021/07/15 09:04:04;;;;;;;3.75;2.75;;;;;;;19.93;88.25;98139.23;126120;1096;23215;-91
2021/07/15 09:06:32;;;;;;;5.28;2.63;;;;;;;20.07;87.80;98139.97;126213;1096;22796;-92
2021/07/15 09:09:02;;;;;;;4.87;2.00;;;;;;;20.19;87.02;98140.21;126882;1096;22821;-92
2021/07/15 09:11:35;;;;;;;4.93;3.13;;;;;;;20.29;87.02;98133.58;126342;1096;23804;-93
2021/07/15 09:14:14;;;;;;;6.58;3.50;;;;;;;20.36;86.16;98125.67;126634;1097;22824;-92
2021/07/15 09:16:55;;;;;;;6.88;2.65;;;;;;;20.44;86.61;98141.48;126234;1096;25761;-92
2021/07/15 09:19:28;;;;;;;6.10;3.07;;;;;;;20.47;86.46;98142.81;126287;1096;22783;-92
2021/07/15 09:22:08;;;;;;;5.20;2.95;;;;;;;20.53;86.65;98155.35;126556;1096;26011;-92
2021/07/15 09:24:41;;;;;;;4.23;2.18;;;;;;;20.59;86.29;98170.70;126485;1095;26312;-92
2021/07/15 09:27:13;;;;;;;4.15;2.48;;;;;;;20.60;86.02;98177.04;126706;1096;25934;-92
2021/07/15 09:29:43;;;;;;;4.40;2.60;;;;;;;20.62;86.03;98180.33;126623;1096;22793;-92
2021/07/15 09:32:16;;;;;;;4.45;2.90;;;;;;;20.65;85.97;98180.51;126105;1095;25951;-92
2021/07/15 09:34:44;;;;;;;5.05;2.65;;;;;;;20.71;85.96;98175.64;126112;1096;26341;-92
2021/07/15 09:37:15;;;;;;;4.38;2.50;;;;;;;20.71;85.59;98169.30;126265;1096;22819;-92
2021/07/15 09:39:48;;;;;;;4.00;2.13;;;;;;;20.75;85.80;98171.13;126400;1096;22799;-92
2021/07/15 09:42:22;;;;;;;5.87;3.17;;;;;;;20.80;85.78;98190.33;126443;1097;22880;-92
2021/07/15 09:44:52;;;;;;;4.48;3.03;;;;;;;20.81;85.12;98197.52;126516;1096;26293;-91
2021/07/15 09:47:44;;;;;;;5.95;3.28;;;;;;;20.73;84.76;98189.97;126247;1097;24428;-92
2021/07/15 09:50:17;;;;;;;4.98;2.40;;;;;;;20.71;84.91;98174.84;126138;1096;22950;-91
2021/07/15 09:52:46;;;;;;;5.08;2.85;;;;;;;20.73;84.96;98159.53;126151;1096;22807;-91
2021/07/15 09:55:19;;;;;;;7.83;2.80;;;;;;;20.77;85.06;98140.34;125785;1097;22973;-92
2021/07/15 09:58:00;;;;;;;8.87;3.07;;;;;;;20.83;85.38;98144.61;125808;1097;26236;-92
2021/07/15 10:00:35;;;;;;;5.50;2.83;;;;;;;20.90;85.33;98144.95;126169;1095;25839;-91
2021/07/15 10:03:08;;;;;;;6.00;2.80;;;;;;;20.93;85.09;98144.32;125683;1097;26318;-92
2021/07/15 10:05:52;;;;;;;4.23;2.70;;;;;;;20.98;85.14;98140.57;125735;1097;22780;-91
2021/07/15 10:08:36;;;;;;;3.63;2.40;;;;;;;21.04;84.75;98151.18;126463;1097;22948;-91
2021/07/15 10:11:33;;;;;;;5.60;2.70;;;;;;;21.11;84.46;98147.14;126238;1097;22803;-91
2021/07/15 10:14:14;;;;;;;3.55;2.80;;;;;;;21.16;84.07;98149.73;126382;1096;23260;-91
2021/07/15 10:16:47;;;;;;;5.18;2.10;;;;;;;21.25;84.46;98150.59;126102;1096;26273;-91
2021/07/15 10:19:23;;;;;;;4.43;1.88;;;;;;;21.37;84.06;98139.69;126178;1096;27182;-90
2021/07/15 10:22:05;;;;;;;3.80;1.93;;;;;;;21.43;83.35;98126.49;126338;1097;22858;-91
2021/07/15 10:24:38;;;;;;;4.50;2.35;;;;;;;21.56;83.26;98130.27;125978;1096;22825;-91
2021/07/15 10:27:11;;;;;;;3.48;2.10;;;;;;;21.75;83.50;98130.75;126045;1096;22813;-90
2021/07/15 10:29:45;;;;;;;2.27;1.73;;;;;;;21.94;83.75;98118.52;125996;1097;24404;-92
2021/07/15 10:32:32;;;;;;;2.90;1.78;;;;;;;22.12;82.11;98099.89;126232;1097;25884;-92
2021/07/15 10:35:00;;;;;;;5.90;2.30;;;;;;;22.31;82.08;98092.03;126772;1090;22803;-91
2021/07/15 10:37:28;;;;;;;7.80;2.13;;;;;;;22.48;81.48;98091.13;126272;1096;22762;-91
2021/07/15 10:39:58;;;;;;;3.18;2.20;;;;;;;22.63;81.12;98087.00;126372;1096;22791;-92
2021/07/15 10:42:27;;;;;;;3.87;2.10;;;;;;;22.81;80.53;98089.70;126729;1095;24653;-91
2021/07/15 10:44:55;;;;;;;4.58;2.10;;;;;;;22.93;80.13;98087.82;126378;1096;22810;-91
2021/07/15 10:47:26;;;;;;;4.53;2.03;;;;;;;23.07;79.58;98095.11;126599;1096;26258;-92
2021/07/15 10:49:56;;;;;;;5.58;2.53;;;;;;;23.18;79.09;98098.30;126666;1096;26284;-91
2021/07/15 10:52:25;;;;;;;4.53;2.63;;;;;;;23.26;78.99;98103.80;126489;1096;25944;-92
2021/07/15 10:54:56;;;;;;;3.73;2.60;;;;;;;23.36;79.63;98119.27;126783;1096;22826;-93
2021/07/15 10:57:25;;;;;;;5.60;2.20;;;;;;;23.47;79.17;98128.82;126377;1096;22829;-92
2021/07/15 10:59:53;;;;;;;6.65;2.30;;;;;;;23.57;79.00;98137.90;125918;1096;22813;-91
2021/07/15 11:02:28;;;;;;;4.35;2.65;;;;;;;23.67;77.93;98137.50;126404;1095;23034;-92
2021/07/15 11:04:55;;;;;;;3.13;2.45;;;;;;;23.76;77.64;98132.70;126314;1096;27284;-92
2021/07/15 11:07:28;;;;;;;3.00;2.60;;;;;;;23.87;77.32;98133.93;126201;1096;23564;-91
2021/07/15 11:10:19;;;;;;;4.73;2.98;;;;;;;23.97;77.51;98126.31;126225;1096;22864;-92
2021/07/15 11:12:59;;;;;;;4.38;3.03;;;;;;;24.15;77.23;98110.25;125675;1096;22816;-91
2021/07/15 11:15:49;;;;;;;4.23;3.30;;;;;;;24.33;76.30;98122.84;125643;1095;22799;-91
2021/07/15 11:18:40;;;;;;;7.65;3.35;;;;;;;24.49;76.36;98108.23;126185;1095;22769;-92
2021/07/15 11:21:27;;;;;;;6.05;3.70;;;;;;;24.63;76.41;98114.34;126168;1096;22944;-92
2021/07/15 11:24:20;;;;;;;6.13;3.05;;;;;;;24.69;76.15;98120.48;126174;1096;24588;-92
2021/07/15 11:26:48;;;;;;;6.70;3.15;;;;;;;24.71;75.22;98120.95;126126;1096;22863;-92
2021/07/15 11:29:16;;;;;;;5.68;3.98;;;;;;;24.71;75.43;98126.52;126152;1097;22787;-92
2021/07/15 11:31:52;;;;;;;4.80;3.83;;;;;;;24.70;75.14;98120.14;125785;1096;22786;-92
2021/07/15 11:34:40;;;;;;;7.18;4.00;;;;;;;24.74;75.05;98123.05;125831;1094;22944;-92
2021/07/15 11:37:32;;;;;;;10.43;4.25;;;;;;;24.78;74.47;98118.40;126138;1096;22956;-93
2021/07/15 11:40:01;;;;;;;6.80;4.10;;;;;;;24.79;74.87;98118.05;126231;1094;22780;-92
2021/07/15 11:42:36;;;;;;;10.55;4.50;;;;;;;24.89;74.35;98113.17;126232;1093;22951;-93
2021/07/15 11:45:09;;;;;;;8.13;4.45;;;;;;;24.96;74.40;98111.42;126447;1093;26372;-93
2021/07/15 11:47:45;;;;;;;7.98;5.10;;;;;;;25.00;74.15;98108.75;126410;1096;22793;-93